Five Corners, Washington
Current Conditions -  °F | °C
As of 7:58 PM on Wednesday 22 Oct 2014 (Local Time) from KGRF Reporting Station
Drizzle Drizzle  
Wind Chill: 57°   Ceiling: 5500
Heat Index: 57°   Visibility: 10mi
Dew Point: 53°   Wind: 13mph
Humidity: 86%   Direction: 160°SSE
Pressure: 29.59"   Gusts: NA
Location:  46.8659°N, 122.534°W
Report Text: KGRF 230258Z AUTO 16011KT 10SM DZ FEW027 BKN055 14/12 A2959 RMK AO2 SLP024 P0000 60004 T01380115 55003 $
Loading
Personal Weather Stations






























Interactive Weather Map
Tropical Storm Tracking
New forecast layout! Learn more

10-Day Weather Forecast

Advertisements
Track Severe Weather on mobile